sensor_id;sensor_type;location;lat;lon;timestamp;pressure;altitude;pressure_sealevel;temperature;humidity
68941;BME280;55982;51.476;7.552;2024-03-08T00:00:45;100035.81;;;2.90;100.00
68941;BME280;55982;51.476;7.552;2024-03-08T00:03:11;100035.81;;;2.93;100.00
68941;BME280;55982;51.476;7.552;2024-03-08T00:05:36;100031.50;;;2.92;100.00
68941;BME280;55982;51.476;7.552;2024-03-08T00:08:04;100025.47;;;2.95;100.00
68941;BME280;55982;51.476;7.552;2024-03-08T00:10:29;100022.06;;;2.88;100.00
68941;BME280;55982;51.476;7.552;2024-03-08T00:12:54;100019.47;;;2.88;100.00
68941;BME280;55982;51.476;7.552;2024-03-08T00:15:20;100020.31;;;2.87;100.00
68941;BME280;55982;51.476;7.552;2024-03-08T00:17:48;100012.56;;;2.84;100.00
68941;BME280;55982;51.476;7.552;2024-03-08T00:20:13;100013.41;;;2.98;100.00
68941;BME280;55982;51.476;7.552;2024-03-08T00:22:38;100010.84;;;3.03;100.00
68941;BME280;55982;51.476;7.552;2024-03-08T00:25:04;100016.88;;;3.00;100.00
68941;BME280;55982;51.476;7.552;2024-03-08T00:27:29;100011.72;;;3.03;100.00
68941;BME280;55982;51.476;7.552;2024-03-08T00:29:58;100006.56;;;3.09;100.00
68941;BME280;55982;51.476;7.552;2024-03-08T00:32:23;100011.72;;;3.12;100.00
68941;BME280;55982;51.476;7.552;2024-03-08T00:34:52;100010.84;;;3.04;100.00
68941;BME280;55982;51.476;7.552;2024-03-08T00:37:18;100006.53;;;3.06;100.00
68941;BME280;55982;51.476;7.552;2024-03-08T00:39:43;100004.81;;;3.08;100.00
68941;BME280;55982;51.476;7.552;2024-03-08T00:42:08;99997.06;;;3.07;100.00
68941;BME280;55982;51.476;7.552;2024-03-08T00:44:33;100001.38;;;3.06;100.00
68941;BME280;55982;51.476;7.552;2024-03-08T00:46:59;99994.47;;;3.14;100.00
68941;BME280;55982;51.476;7.552;2024-03-08T00:49:24;100006.53;;;3.18;100.00
68941;BME280;55982;51.476;7.552;2024-03-08T00:51:49;99976.38;;;3.04;100.00
68941;BME280;55982;51.476;7.552;2024-03-08T00:54:14;99995.34;;;3.16;100.00
68941;BME280;55982;51.476;7.552;2024-03-08T00:56:41;99992.75;;;3.04;100.00
68941;BME280;55982;51.476;7.552;2024-03-08T00:59:06;99989.31;;;3.14;100.00
68941;BME280;55982;51.476;7.552;2024-03-08T01:01:32;99996.19;;;3.06;100.00
68941;BME280;55982;51.476;7.552;2024-03-08T01:03:57;99982.44;;;2.89;100.00
68941;BME280;55982;51.476;7.552;2024-03-08T01:06:23;99989.31;;;2.81;100.00
68941;BME280;55982;51.476;7.552;2024-03-08T01:08:48;99982.44;;;2.80;100.00
68941;BME280;55982;51.476;7.552;2024-03-08T01:11:16;99981.56;;;2.81;100.00
68941;BME280;55982;51.476;7.552;2024-03-08T01:13:42;99976.38;;;2.81;100.00
68941;BME280;55982;51.476;7.552;2024-03-08T01:16:07;99975.53;;;2.91;100.00
68941;BME280;55982;51.476;7.552;2024-03-08T01:18:32;99965.19;;;2.79;100.00
68941;BME280;55982;51.476;7.552;2024-03-08T01:20:58;99963.47;;;2.75;100.00
68941;BME280;55982;51.476;7.552;2024-03-08T01:23:23;99969.50;;;2.77;100.00
68941;BME280;55982;51.476;7.552;2024-03-08T01:25:49;99964.34;;;2.77;100.00
68941;BME280;55982;51.476;7.552;2024-03-08T01:28:21;99936.78;;;2.70;100.00
68941;BME280;55982;51.476;7.552;2024-03-08T01:30:46;99942.81;;;2.72;100.00
68941;BME280;55982;51.476;7.552;2024-03-08T01:33:12;99919.56;;;2.72;100.00
68941;BME280;55982;51.476;7.552;2024-03-08T01:35:37;99941.97;;;2.77;100.00
68941;BME280;55982;51.476;7.552;2024-03-08T01:38:02;99932.47;;;2.66;100.00
68941;BME280;55982;51.476;7.552;2024-03-08T01:40:30;99936.78;;;2.71;100.00
68941;BME280;55982;51.476;7.552;2024-03-08T01:42:55;99932.47;;;2.67;100.00
68941;BME280;55982;51.476;7.552;2024-03-08T01:45:20;99927.31;;;2.60;100.00
68941;BME280;55982;51.476;7.552;2024-03-08T01:47:45;99918.72;;;2.55;100.00
68941;BME280;55982;51.476;7.552;2024-03-08T01:50:13;99922.13;;;2.54;100.00
68941;BME280;55982;51.476;7.552;2024-03-08T01:52:38;99926.47;;;2.62;100.00
68941;BME280;55982;51.476;7.552;2024-03-08T01:55:03;99915.28;;;2.59;100.00
68941;BME280;55982;51.476;7.552;2024-03-08T01:57:32;99913.53;;;2.58;100.00
68941;BME280;55982;51.476;7.552;2024-03-08T01:59:58;99914.41;;;2.54;100.00
68941;BME280;55982;51.476;7.552;2024-03-08T02:02:24;99901.50;;;2.60;100.00
68941;BME280;55982;51.476;7.552;2024-03-08T02:04:49;99909.25;;;2.52;100.00
68941;BME280;55982;51.476;7.552;2024-03-08T02:07:17;99906.66;;;2.51;100.00
68941;BME280;55982;51.476;7.552;2024-03-08T02:09:43;99894.59;;;2.56;100.00
68941;BME280;55982;51.476;7.552;2024-03-08T02:12:08;99896.34;;;2.58;100.00
68941;BME280;55982;51.476;7.552;2024-03-08T02:14:34;99901.50;;;2.60;100.00
68941;BME280;55982;51.476;7.552;2024-03-08T02:17:00;99900.66;;;2.53;100.00
68941;BME280;55982;51.476;7.552;2024-03-08T02:19:25;99898.91;;;2.52;100.00
68941;BME280;55982;51.476;7.552;2024-03-08T02:21:50;99895.47;;;2.47;100.00
68941;BME280;55982;51.476;7.552;2024-03-08T02:24:15;99897.19;;;2.42;100.00
68941;BME280;55982;51.476;7.552;2024-03-08T02:26:41;99892.91;;;2.47;100.00
68941;BME280;55982;51.476;7.552;2024-03-08T02:29:07;99879.97;;;2.38;100.00
68941;BME280;55982;51.476;7.552;2024-03-08T02:31:32;99882.56;;;2.43;100.00
68941;BME280;55982;51.476;7.552;2024-03-08T02:33:58;99879.97;;;2.44;100.00
68941;BME280;55982;51.476;7.552;2024-03-08T02:36:24;99886.88;;;2.47;100.00
68941;BME280;55982;51.476;7.552;2024-03-08T02:38:49;99875.66;;;2.39;100.00
68941;BME280;55982;51.476;7.552;2024-03-08T02:41:15;99871.38;;;2.39;100.00
68941;BME280;55982;51.476;7.552;2024-03-08T02:43:40;99865.34;;;2.37;100.00
68941;BME280;55982;51.476;7.552;2024-03-08T02:46:05;99871.38;;;2.33;100.00
68941;BME280;55982;51.476;7.552;2024-03-08T02:48:30;99867.06;;;2.28;100.00
68941;BME280;55982;51.476;7.552;2024-03-08T02:50:55;99869.66;;;2.19;100.00
68941;BME280;55982;51.476;7.552;2024-03-08T02:53:21;99857.59;;;2.18;100.00
68941;BME280;55982;51.476;7.552;2024-03-08T02:55:47;99832.66;;;2.20;100.00
68941;BME280;55982;51.476;7.552;2024-03-08T02:58:12;99863.63;;;2.29;100.00
68941;BME280;55982;51.476;7.552;2024-03-08T03:00:38;99862.75;;;2.27;100.00
68941;BME280;55982;51.476;7.552;2024-03-08T03:03:04;99853.28;;;2.11;100.00
68941;BME280;55982;51.476;7.552;2024-03-08T03:05:29;99861.88;;;2.16;100.00
68941;BME280;55982;51.476;7.552;2024-03-08T03:07:55;99866.19;;;2.18;100.00
68941;BME280;55982;51.476;7.552;2024-03-08T03:10:20;99851.56;;;2.07;100.00
68941;BME280;55982;51.476;7.552;2024-03-08T03:12:47;99846.41;;;2.07;100.00
68941;BME280;55982;51.476;7.552;2024-03-08T03:15:16;99848.97;;;2.02;100.00
68941;BME280;55982;51.476;7.552;2024-03-08T03:17:45;99847.25;;;1.98;100.00
68941;BME280;55982;51.476;7.552;2024-03-08T03:20:11;99842.09;;;2.01;100.00
68941;BME280;55982;51.476;7.552;2024-03-08T03:22:39;99844.69;;;2.03;100.00
68941;BME280;55982;51.476;7.552;2024-03-08T03:25:06;99842.97;;;2.05;100.00
68941;BME280;55982;51.476;7.552;2024-03-08T03:27:31;99835.25;;;2.09;100.00
68941;BME280;55982;51.476;7.552;2024-03-08T03:29:57;99835.19;;;1.91;100.00
68941;BME280;55982;51.476;7.552;2024-03-08T03:32:22;99830.94;;;1.98;100.00
68941;BME280;55982;51.476;7.552;2024-03-08T03:34:48;99837.78;;;1.91;100.00
68941;BME280;55982;51.476;7.552;2024-03-08T03:37:13;99835.22;;;1.96;100.00
68941;BME280;55982;51.476;7.552;2024-03-08T03:39:39;99831.78;;;2.01;100.00
68941;BME280;55982;51.476;7.552;2024-03-08T03:42:17;99824.88;;;1.94;100.00
68941;BME280;55982;51.476;7.552;2024-03-08T03:44:46;99824.03;;;1.94;100.00
68941;BME280;55982;51.476;7.552;2024-03-08T03:47:12;99829.19;;;1.91;100.00
68941;BME280;55982;51.476;7.552;2024-03-08T03:49:37;99829.19;;;1.91;100.00
68941;BME280;55982;51.476;7.552;2024-03-08T03:52:02;99824.88;;;1.94;100.00
68941;BME280;55982;51.476;7.552;2024-03-08T03:54:29;99825.75;;;1.93;100.00
68941;BME280;55982;51.476;7.552;2024-03-08T03:56:55;99822.28;;;1.77;100.00
68941;BME280;55982;51.476;7.552;2024-03-08T03:59:21;99818.81;;;1.69;100.00
68941;BME280;55982;51.476;7.552;2024-03-08T04:01:46;99823.13;;;1.72;100.00
68941;BME280;55982;51.476;7.552;2024-03-08T04:04:11;99811.09;;;1.69;100.00
68941;BME280;55982;51.476;7.552;2024-03-08T04:06:37;99809.38;;;1.79;100.00
68941;BME280;55982;51.476;7.552;2024-03-08T04:09:02;99805.09;;;1.73;100.00
68941;BME280;55982;51.476;7.552;2024-03-08T04:11:30;99812.00;;;1.80;100.00
68941;BME280;55982;51.476;7.552;2024-03-08T04:13:55;99801.63;;;1.65;100.00
68941;BME280;55982;51.476;7.552;2024-03-08T04:16:21;99801.66;;;1.67;100.00
68941;BME280;55982;51.476;7.552;2024-03-08T04:18:46;99796.47;;;1.65;100.00
68941;BME280;55982;51.476;7.552;2024-03-08T04:21:12;99795.66;;;1.80;100.00
68941;BME280;55982;51.476;7.552;2024-03-08T04:23:38;99796.50;;;1.93;100.00
68941;BME280;55982;51.476;7.552;2024-03-08T04:26:03;99802.53;;;1.95;100.00
68941;BME280;55982;51.476;7.552;2024-03-08T04:28:29;99793.06;;;2.06;100.00
68941;BME280;55982;51.476;7.552;2024-03-08T04:30:54;99791.34;;;2.08;100.00
68941;BME280;55982;51.476;7.552;2024-03-08T04:33:20;99801.69;;;2.14;100.00
68941;BME280;55982;51.476;7.552;2024-03-08T04:35:46;99801.69;;;2.05;100.00
68941;BME280;55982;51.476;7.552;2024-03-08T04:38:11;99797.41;;;2.05;100.00
68941;BME280;55982;51.476;7.552;2024-03-08T04:40:37;99794.81;;;2.01;100.00
68941;BME280;55982;51.476;7.552;2024-03-08T04:43:02;99794.78;;;1.95;100.00
68941;BME280;55982;51.476;7.552;2024-03-08T04:45:27;99788.78;;;1.88;100.00
68941;BME280;55982;51.476;7.552;2024-03-08T04:47:53;99784.47;;;1.85;100.00
68941;BME280;55982;51.476;7.552;2024-03-08T04:50:18;99782.75;;;1.84;100.00
68941;BME280;55982;51.476;7.552;2024-03-08T04:52:43;99787.91;;;1.88;100.00
68941;BME280;55982;51.476;7.552;2024-03-08T04:55:09;99782.75;;;1.84;100.00
68941;BME280;55982;51.476;7.552;2024-03-08T04:57:34;99793.06;;;1.81;100.00
68941;BME280;55982;51.476;7.552;2024-03-08T04:59:59;99781.03;;;1.77;100.00
68941;BME280;55982;51.476;7.552;2024-03-08T05:02:25;99778.47;;;1.74;100.00
68941;BME280;55982;51.476;7.552;2024-03-08T05:04:50;99775.88;;;1.68;100.00
68941;BME280;55982;51.476;7.552;2024-03-08T05:07:16;99782.72;;;1.63;100.00
68941;BME280;55982;51.476;7.552;2024-03-08T05:09:41;99780.13;;;1.54;100.00
68941;BME280;55982;51.476;7.552;2024-03-08T05:12:06;99775.81;;;1.47;100.00
68941;BME280;55982;51.476;7.552;2024-03-08T05:14:33;99772.38;;;1.39;100.00
68941;BME280;55982;51.476;7.552;2024-03-08T05:17:00;99777.50;;;1.39;100.00
68941;BME280;55982;51.476;7.552;2024-03-08T05:19:25;99777.53;;;1.48;100.00
68941;BME280;55982;51.476;7.552;2024-03-08T05:21:51;99775.81;;;1.38;100.00
68941;BME280;55982;51.476;7.552;2024-03-08T05:24:16;99774.94;;;1.41;100.00
68941;BME280;55982;51.476;7.552;2024-03-08T05:26:42;99762.06;;;1.36;100.00
68941;BME280;55982;51.476;7.552;2024-03-08T05:29:07;99768.94;;;1.43;100.00
68941;BME280;55982;51.476;7.552;2024-03-08T05:31:47;99762.91;;;1.41;100.00
68941;BME280;55982;51.476;7.552;2024-03-08T05:34:13;99771.53;;;1.49;100.00
68941;BME280;55982;51.476;7.552;2024-03-08T05:36:39;99762.94;;;1.49;100.00
68941;BME280;55982;51.476;7.552;2024-03-08T05:39:04;99762.09;;;1.54;100.00
68941;BME280;55982;51.476;7.552;2024-03-08T05:41:31;99763.78;;;1.52;100.00
68941;BME280;55982;51.476;7.552;2024-03-08T05:43:56;99760.38;;;1.53;100.00
68941;BME280;55982;51.476;7.552;2024-03-08T05:46:21;99753.50;;;1.55;100.00
68941;BME280;55982;51.476;7.552;2024-03-08T05:48:47;99753.47;;;1.52;100.00
68941;BME280;55982;51.476;7.552;2024-03-08T05:51:12;99748.34;;;1.57;100.00
68941;BME280;55982;51.476;7.552;2024-03-08T05:53:37;99755.22;;;1.53;100.00
68941;BME280;55982;51.476;7.552;2024-03-08T05:56:03;99744.88;;;1.50;100.00
68941;BME280;55982;51.476;7.552;2024-03-08T05:58:28;99756.03;;;1.45;100.00
68941;BME280;55982;51.476;7.552;2024-03-08T06:00:55;99759.50;;;1.50;100.00
68941;BME280;55982;51.476;7.552;2024-03-08T06:03:20;99752.63;;;1.46;100.00
68941;BME280;55982;51.476;7.552;2024-03-08T06:05:46;99750.91;;;1.54;100.00
68941;BME280;55982;51.476;7.552;2024-03-08T06:08:12;99750.94;;;1.55;100.00
68941;BME280;55982;51.476;7.552;2024-03-08T06:10:39;99756.09;;;1.57;100.00
68941;BME280;55982;51.476;7.552;2024-03-08T06:13:05;99749.19;;;1.56;100.00
68941;BME280;55982;51.476;7.552;2024-03-08T06:15:32;99738.03;;;1.55;100.00
68941;BME280;55982;51.476;7.552;2024-03-08T06:17:57;99743.19;;;1.58;100.00
68941;BME280;55982;51.476;7.552;2024-03-08T06:20:22;99744.91;;;1.65;100.00
68941;BME280;55982;51.476;7.552;2024-03-08T06:22:51;99749.22;;;1.65;100.00
68941;BME280;55982;51.476;7.552;2024-03-08T06:25:16;99746.63;;;1.69;100.00
68941;BME280;55982;51.476;7.552;2024-03-08T06:27:42;99744.94;;;1.80;100.00
68941;BME280;55982;51.476;7.552;2024-03-08T06:30:11;99750.09;;;1.90;100.00
68941;BME280;55982;51.476;7.552;2024-03-08T06:32:37;99748.38;;;1.98;100.00
68941;BME280;55982;51.476;7.552;2024-03-08T06:35:05;99752.66;;;2.06;100.00
68941;BME280;55982;51.476;7.552;2024-03-08T06:37:35;99747.53;;;2.09;100.00
68941;BME280;55982;51.476;7.552;2024-03-08T06:40:00;99755.25;;;2.09;100.00
68941;BME280;55982;51.476;7.552;2024-03-08T06:42:29;99749.22;;;2.16;100.00
68941;BME280;55982;51.476;7.552;2024-03-08T06:44:58;99738.84;;;2.40;100.00
68941;BME280;55982;51.476;7.552;2024-03-08T06:47:29;99749.19;;;2.51;100.00
68941;BME280;55982;51.476;7.552;2024-03-08T06:49:55;99743.97;;;2.66;100.00
68941;BME280;55982;51.476;7.552;2024-03-08T06:52:20;99744.84;;;2.62;100.00
68941;BME280;55982;51.476;7.552;2024-03-08T06:54:47;99748.31;;;2.61;100.00
68941;BME280;55982;51.476;7.552;2024-03-08T06:57:12;99750.84;;;2.71;100.00
68941;BME280;55982;51.476;7.552;2024-03-08T06:59:39;99755.19;;;2.65;100.00
68941;BME280;55982;51.476;7.552;2024-03-08T07:02:04;99753.41;;;2.79;100.00
68941;BME280;55982;51.476;7.552;2024-03-08T07:04:29;99752.47;;;3.01;100.00
68941;BME280;55982;51.476;7.552;2024-03-08T07:06:57;99746.53;;;2.78;100.00
68941;BME280;55982;51.476;7.552;2024-03-08T07:09:26;99748.16;;;3.00;100.00
68941;BME280;55982;51.476;7.552;2024-03-08T07:11:51;99741.28;;;2.96;100.00
68941;BME280;55982;51.476;7.552;2024-03-08T07:14:26;99744.63;;;3.22;100.00
68941;BME280;55982;51.476;7.552;2024-03-08T07:16:52;99742.75;;;3.42;100.00
68941;BME280;55982;51.476;7.552;2024-03-08T07:19:17;99751.53;;;3.20;100.00
68941;BME280;55982;51.476;7.552;2024-03-08T07:21:44;99746.25;;;3.41;100.00
68941;BME280;55982;51.476;7.552;2024-03-08T07:24:09;99746.22;;;3.38;100.00
68941;BME280;55982;51.476;7.552;2024-03-08T07:26:52;99750.97;;;4.05;100.00
68941;BME280;55982;51.476;7.552;2024-03-08T07:29:18;99747.09;;;4.51;100.00
68941;BME280;55982;51.476;7.552;2024-03-08T07:31:43;99746.53;;;5.01;100.00
68941;BME280;55982;51.476;7.552;2024-03-08T07:34:27;99742.72;;;5.27;100.00
68941;BME280;55982;51.476;7.552;2024-03-08T07:36:53;99739.50;;;5.71;100.00
68941;BME280;55982;51.476;7.552;2024-03-08T07:39:18;99739.34;;;5.80;100.00
68941;BME280;55982;51.476;7.552;2024-03-08T07:41:44;99733.47;;;6.25;100.00
68941;BME280;55982;51.476;7.552;2024-03-08T07:44:09;99731.53;;;5.85;100.00
68941;BME280;55982;51.476;7.552;2024-03-08T07:46:35;99736.47;;;6.00;100.00
68941;BME280;55982;51.476;7.552;2024-03-08T07:49:01;99728.03;;;6.39;100.00
68941;BME280;55982;51.476;7.552;2024-03-08T07:51:28;99724.78;;;6.28;100.00
68941;BME280;55982;51.476;7.552;2024-03-08T07:53:53;99725.38;;;6.42;100.00
68941;BME280;55982;51.476;7.552;2024-03-08T07:56:20;99722.19;;;7.16;100.00
68941;BME280;55982;51.476;7.552;2024-03-08T07:58:46;99729.78;;;7.64;100.00
68941;BME280;55982;51.476;7.552;2024-03-08T08:01:18;99720.41;;;7.18;100.00
68941;BME280;55982;51.476;7.552;2024-03-08T08:03:43;99713.16;;;6.90;100.00
68941;BME280;55982;51.476;7.552;2024-03-08T08:06:08;99717.34;;;7.38;100.00
68941;BME280;55982;51.476;7.552;2024-03-08T08:08:34;99713.66;;;7.85;100.00
68941;BME280;55982;51.476;7.552;2024-03-08T08:11:00;99703.22;;;6.67;100.00
68941;BME280;55982;51.476;7.552;2024-03-08T08:13:26;99707.66;;;7.45;100.00
68941;BME280;55982;51.476;7.552;2024-03-08T08:15:53;99704.97;;;7.49;100.00
68941;BME280;55982;51.476;7.552;2024-03-08T08:18:18;99705.41;;;7.68;100.00
68941;BME280;55982;51.476;7.552;2024-03-08T08:20:46;99702.72;;;8.06;100.00
68941;BME280;55982;51.476;7.552;2024-03-08T08:23:12;99702.38;;;8.53;100.00
68941;BME280;55982;51.476;7.552;2024-03-08T08:25:37;99692.69;;;7.91;100.00
68941;BME280;55982;51.476;7.552;2024-03-08T08:28:03;99685.28;;;8.43;100.00
68941;BME280;55982;51.476;7.552;2024-03-08T08:30:29;99685.69;;;8.60;100.00
68941;BME280;55982;51.476;7.552;2024-03-08T08:32:54;99672.19;;;8.11;100.00
68941;BME280;55982;51.476;7.552;2024-03-08T08:35:20;99681.59;;;8.18;100.00
68941;BME280;55982;51.476;7.552;2024-03-08T08:37:45;99669.94;;;8.63;100.00
68941;BME280;55982;51.476;7.552;2024-03-08T08:40:11;99672.97;;;8.48;100.00
68941;BME280;55982;51.476;7.552;2024-03-08T08:42:40;99669.88;;;8.95;100.00
68941;BME280;55982;51.476;7.552;2024-03-08T08:45:06;99672.44;;;8.98;100.00
68941;BME280;55982;51.476;7.552;2024-03-08T08:47:37;99666.84;;;9.10;100.00
68941;BME280;55982;51.476;7.552;2024-03-08T08:50:03;99665.59;;;8.94;100.00
68941;BME280;55982;51.476;7.552;2024-03-08T08:52:32;99661.03;;;8.41;100.00
68941;BME280;55982;51.476;7.552;2024-03-08T08:54:57;99662.75;;;7.36;100.00
68941;BME280;55982;51.476;7.552;2024-03-08T08:57:22;99657.25;;;7.49;100.00
68941;BME280;55982;51.476;7.552;2024-03-08T08:59:48;99657.78;;;7.98;100.00
68941;BME280;55982;51.476;7.552;2024-03-08T09:02:13;99652.44;;;8.68;100.00
68941;BME280;55982;51.476;7.552;2024-03-08T09:04:41;99653.72;;;6.73;100.00
68941;BME280;55982;51.476;7.552;2024-03-08T09:07:09;99644.53;;;9.00;100.00
68941;BME280;55982;51.476;7.552;2024-03-08T09:09:34;99641.00;;;8.72;100.00
68941;BME280;55982;51.476;7.552;2024-03-08T09:12:00;99637.78;;;8.93;100.00
68941;BME280;55982;51.476;7.552;2024-03-08T09:14:26;99632.69;;;9.46;100.00
68941;BME280;55982;51.476;7.552;2024-03-08T09:16:51;99626.81;;;9.11;100.00
68941;BME280;55982;51.476;7.552;2024-03-08T09:19:16;99622.34;;;9.43;100.00
68941;BME280;55982;51.476;7.552;2024-03-08T09:21:42;99624.75;;;8.32;100.00
68941;BME280;55982;51.476;7.552;2024-03-08T09:24:07;99623.84;;;8.94;100.00
68941;BME280;55982;51.476;7.552;2024-03-08T09:26:34;99614.00;;;9.32;100.00
68941;BME280;55982;51.476;7.552;2024-03-08T09:28:59;99616.31;;;8.84;100.00
68941;BME280;55982;51.476;7.552;2024-03-08T09:31:24;99605.03;;;7.90;100.00
68941;BME280;55982;51.476;7.552;2024-03-08T09:33:50;99602.44;;;8.54;100.00
68941;BME280;55982;51.476;7.552;2024-03-08T09:36:16;99605.66;;;9.99;100.00
68941;BME280;55982;51.476;7.552;2024-03-08T09:38:42;99601.13;;;10.76;100.00
68941;BME280;55982;51.476;7.552;2024-03-08T09:41:07;99586.34;;;10.75;94.82
68941;BME280;55982;51.476;7.552;2024-03-08T09:43:34;99584.75;;;10.71;100.00
68941;BME280;55982;51.476;7.552;2024-03-08T09:45:59;99583.63;;;10.55;98.35
68941;BME280;55982;51.476;7.552;2024-03-08T09:48:25;99583.75;;;10.75;100.00
68941;BME280;55982;51.476;7.552;2024-03-08T09:50:51;99583.00;;;10.24;100.00
68941;BME280;55982;51.476;7.552;2024-03-08T09:53:16;99578.66;;;10.71;98.43
68941;BME280;55982;51.476;7.552;2024-03-08T09:55:41;99571.09;;;10.86;99.13
68941;BME280;55982;51.476;7.552;2024-03-08T09:58:13;99573.34;;;10.95;89.66
68941;BME280;55982;51.476;7.552;2024-03-08T10:00:57;99562.59;;;10.58;98.25
68941;BME280;55982;51.476;7.552;2024-03-08T10:03:23;99556.09;;;10.45;100.00
68941;BME280;55982;51.476;7.552;2024-03-08T10:05:48;99560.94;;;9.03;100.00
68941;BME280;55982;51.476;7.552;2024-03-08T10:08:13;99543.47;;;9.84;100.00
68941;BME280;55982;51.476;7.552;2024-03-08T10:10:39;99540.78;;;9.61;100.00
68941;BME280;55982;51.476;7.552;2024-03-08T10:13:07;99545.94;;;9.88;100.00
68941;BME280;55982;51.476;7.552;2024-03-08T10:15:33;99536.94;;;9.97;100.00
68941;BME280;55982;51.476;7.552;2024-03-08T10:17:58;99543.19;;;9.67;100.00
68941;BME280;55982;51.476;7.552;2024-03-08T10:20:24;99534.50;;;11.06;100.00
68941;BME280;55982;51.476;7.552;2024-03-08T10:22:49;99532.53;;;9.48;100.00
68941;BME280;55982;51.476;7.552;2024-03-08T10:25:14;99539.91;;;10.11;100.00
68941;BME280;55982;51.476;7.552;2024-03-08T10:27:40;99528.47;;;10.38;100.00
68941;BME280;55982;51.476;7.552;2024-03-08T10:30:17;99526.91;;;10.09;100.00
68941;BME280;55982;51.476;7.552;2024-03-08T10:32:45;99522.81;;;10.01;100.00
68941;BME280;55982;51.476;7.552;2024-03-08T10:35:10;99521.13;;;9.51;100.00
68941;BME280;55982;51.476;7.552;2024-03-08T10:37:44;99522.59;;;10.07;100.00
68941;BME280;55982;51.476;7.552;2024-03-08T10:40:12;99513.44;;;10.20;100.00
68941;BME280;55982;51.476;7.552;2024-03-08T10:42:41;99512.09;;;11.43;100.00
68941;BME280;55982;51.476;7.552;2024-03-08T10:47:49;99512.50;;;10.90;90.04
68941;BME280;55982;51.476;7.552;2024-03-08T10:50:20;99504.28;;;11.83;100.00
68941;BME280;55982;51.476;7.552;2024-03-08T10:52:50;99489.50;;;12.76;88.76
68941;BME280;55982;51.476;7.552;2024-03-08T10:55:17;99488.03;;;10.91;98.18
68941;BME280;55982;51.476;7.552;2024-03-08T10:57:42;99491.25;;;12.20;94.63
68941;BME280;55982;51.476;7.552;2024-03-08T11:00:08;99496.53;;;12.39;85.05
68941;BME280;55982;51.476;7.552;2024-03-08T11:02:36;99477.44;;;12.72;81.83
68941;BME280;55982;51.476;7.552;2024-03-08T11:05:03;99476.88;;;12.66;80.48
68941;BME280;55982;51.476;7.552;2024-03-08T11:07:34;99465.38;;;13.57;79.64
68941;BME280;55982;51.476;7.552;2024-03-08T11:10:02;99450.50;;;12.32;89.08
68941;BME280;55982;51.476;7.552;2024-03-08T11:12:30;99466.75;;;12.21;86.16
68941;BME280;55982;51.476;7.552;2024-03-08T11:15:01;99461.50;;;12.21;92.68
68941;BME280;55982;51.476;7.552;2024-03-08T11:19:58;99452.94;;;11.79;89.86
68941;BME280;55982;51.476;7.552;2024-03-08T11:22:27;99449.44;;;12.17;94.87
68941;BME280;55982;51.476;7.552;2024-03-08T11:24:53;99442.59;;;12.33;76.11
68941;BME280;55982;51.476;7.552;2024-03-08T11:27:18;99445.13;;;13.59;59.16
68941;BME280;55982;51.476;7.552;2024-03-08T11:29:45;99419.28;;;12.99;59.50
68941;BME280;55982;51.476;7.552;2024-03-08T11:32:26;99433.78;;;13.91;57.12
68941;BME280;55982;51.476;7.552;2024-03-08T11:34:53;99420.91;;;13.37;58.17
68941;BME280;55982;51.476;7.552;2024-03-08T11:37:18;99406.84;;;12.85;57.54
68941;BME280;55982;51.476;7.552;2024-03-08T11:39:54;99421.78;;;12.47;59.61
68941;BME280;55982;51.476;7.552;2024-03-08T11:42:31;99411.28;;;12.47;61.33
68941;BME280;55982;51.476;7.552;2024-03-08T11:44:56;99408.75;;;12.99;59.02
68941;BME280;55982;51.476;7.552;2024-03-08T11:47:23;99389.34;;;12.67;57.32
68941;BME280;55982;51.476;7.552;2024-03-08T11:49:48;99394.38;;;12.17;57.38
68941;BME280;55982;51.476;7.552;2024-03-08T11:52:14;99401.66;;;12.48;56.51
68941;BME280;55982;51.476;7.552;2024-03-08T11:54:40;99378.25;;;12.62;57.51
68941;BME280;55982;51.476;7.552;2024-03-08T11:57:06;99389.91;;;12.73;59.71
68941;BME280;55982;51.476;7.552;2024-03-08T11:59:31;99392.28;;;13.48;57.21
68941;BME280;55982;51.476;7.552;2024-03-08T12:02:06;99373.16;;;12.93;55.06
68941;BME280;55982;51.476;7.552;2024-03-08T12:04:35;99370.59;;;12.57;59.81
68941;BME280;55982;51.476;7.552;2024-03-08T12:07:01;99365.44;;;12.37;56.53
68941;BME280;55982;51.476;7.552;2024-03-08T12:09:27;99373.41;;;13.57;56.38
68941;BME280;55982;51.476;7.552;2024-03-08T12:11:53;99364.22;;;13.81;54.76
68941;BME280;55982;51.476;7.552;2024-03-08T12:14:18;99354.88;;;12.92;53.04
68941;BME280;55982;51.476;7.552;2024-03-08T12:16:43;99357.31;;;12.77;55.77
68941;BME280;55982;51.476;7.552;2024-03-08T12:19:09;99352.44;;;13.06;55.26
68941;BME280;55982;51.476;7.552;2024-03-08T12:21:35;99348.25;;;12.13;60.83
68941;BME280;55982;51.476;7.552;2024-03-08T12:24:04;99332.00;;;12.94;56.71
68941;BME280;55982;51.476;7.552;2024-03-08T12:26:30;99340.38;;;13.68;56.41
68941;BME280;55982;51.476;7.552;2024-03-08T12:29:13;99325.53;;;12.83;58.41
68941;BME280;55982;51.476;7.552;2024-03-08T12:31:39;99322.47;;;12.93;54.48
68941;BME280;55982;51.476;7.552;2024-03-08T12:34:04;99329.75;;;12.52;59.61
68941;BME280;55982;51.476;7.552;2024-03-08T12:36:29;99312.97;;;12.02;58.60
68941;BME280;55982;51.476;7.552;2024-03-08T12:38:55;99315.25;;;11.90;60.12
68941;BME280;55982;51.476;7.552;2024-03-08T12:41:20;99305.47;;;11.55;59.78
68941;BME280;55982;51.476;7.552;2024-03-08T12:43:46;99309.50;;;11.82;63.15
68941;BME280;55982;51.476;7.552;2024-03-08T12:46:17;99287.03;;;11.58;64.36
68941;BME280;55982;51.476;7.552;2024-03-08T12:48:45;99310.72;;;11.17;63.63
68941;BME280;55982;51.476;7.552;2024-03-08T12:51:21;99295.63;;;11.42;64.50
68941;BME280;55982;51.476;7.552;2024-03-08T12:53:46;99297.66;;;10.96;61.75
68941;BME280;55982;51.476;7.552;2024-03-08T12:56:12;99289.09;;;11.32;65.01
68941;BME280;55982;51.476;7.552;2024-03-08T12:58:38;99295.34;;;11.68;66.11
68941;BME280;55982;51.476;7.552;2024-03-08T13:01:04;99281.03;;;10.77;67.21